• Join FlightAware (Why Join?)
  • Login
  • US Flag 
06:58AM EST


 

Airport Tracker/Info


-or-


 

Live Flight TrackerFlight Track Log ✈ AFR702 ✈ 07-May-2013 ✈ LFPG / CDG - DIAP / ABJ

Flight Track Log - Related Links

Times and Time Zones

All times are in EDT time to prevent confusion due to time zone crossing. See the AFR702 flight status page for this flight to view local times or setup timezone preferences in your user account.

Time Position Orientation Groundspeed Altitude Reporting Facility
EDT Latitude Longitude Course Direction KTS MPH feet Rate Location/Type
08:15AM 48.5983 2.4475 189° South  Level Estimated
08:16AM 48.4660 2.4151 189° South  Level Estimated
08:16AM 48.9960 2.5606 189° South 179 206 600  Level FlightAware ADS-B
08:16AM 48.9953 2.5524 263° West 181 208 800 2,700 Climbing FlightAware ADS-B
08:16AM 48.9941 2.5325 265° West 180 207 1,600 2,580 Climbing FlightAware ADS-B
08:16AM 48.9930 2.5129 265° West 177 204 2,200 1,980 Climbing FlightAware ADS-B
08:17AM 48.9921 2.4904 267° West 185 213 2,700 1,740 Climbing FlightAware ADS-B
08:17AM 48.9907 2.4695 264° West 183 211 3,200 1,500 Climbing FlightAware ADS-B
08:17AM 48.9896 2.4496 265° West 195 224 3,500 1,020 Climbing FlightAware ADS-B
08:17AM 48.9886 2.4287 266° West 211 243 3,700 960 Climbing FlightAware ADS-B
08:18AM 48.9872 2.4048 265° West 226 260 4,000 1,140 Climbing FlightAware ADS-B
08:18AM 48.9858 2.3797 265° West 240 276 4,300 1,200 Climbing FlightAware ADS-B
08:18AM 48.9853 2.3707 265° West 247 284 4,400 1,200 Climbing FlightAware ADS-B
08:18AM 48.9839 2.3432 266° West 262 302 4,700 1,500 Climbing FlightAware ADS-B
08:19AM 48.9823 2.3128 265° West 271 312 5,200 2,040 Climbing FlightAware ADS-B
08:19AM 48.9806 2.2828 265° West 274 315 5,800 2,400 Climbing FlightAware ADS-B
08:19AM 48.9789 2.2504 265° West 277 319 6,500 2,340 Climbing FlightAware ADS-B
08:19AM 48.9771 2.2203 265° West 281 323 7,100 2,160 Climbing FlightAware ADS-B
08:19AM 48.9761 2.2085 263° West 283 326 7,300 1,980 Climbing FlightAware ADS-B
08:20AM 48.9753 2.2016 260° West 284 327 7,400 2,400 Climbing FlightAware ADS-B
08:20AM 48.9728 2.1879 254° West 286 329 7,700 2,400 Climbing FlightAware ADS-B
08:20AM 48.9694 2.1727 251° West 288 331 8,000 2,160 Climbing FlightAware ADS-B
08:20AM 48.9615 2.1402 250° West 291 335 8,600 2,040 Climbing FlightAware ADS-B
08:20AM 48.9545 2.1123 249° West 295 339 9,100 2,160 Climbing FlightAware ADS-B
08:21AM 48.9469 2.0827 249° West 295 339 9,700 2,280 Climbing FlightAware ADS-B
08:21AM 48.9450 2.0765 245° Southwest 295 339 9,800 1,680 Climbing FlightAware ADS-B
08:21AM 48.9428 2.0705 241° Southwest 296 341 9,900 1,680 Climbing FlightAware ADS-B
08:21AM 48.9405 2.0652 237° Southwest 297 342 10,000 2,220 Climbing FlightAware ADS-B
08:21AM 48.9357 2.0563 231° Southwest 299 344 10,200 1,500 Climbing FlightAware ADS-B
08:21AM 48.9286 2.0463 223° Southwest 305 351 10,300 540 Climbing FlightAware ADS-B
08:21AM 48.9237 2.0410 216° Southwest 308 354 10,300 660 Level FlightAware ADS-B
08:21AM 48.9180 2.0363 209° Southwest 312 359 10,400 1,080 Climbing FlightAware ADS-B
08:21AM 48.9091 2.0314 200° South 316 364 10,500 600 Climbing FlightAware ADS-B
08:21AM 48.9044 2.0299 192° South 319 367 10,500 600 Level FlightAware ADS-B
08:21AM 48.8950 2.0281 187° South 323 372 10,600 960 Climbing FlightAware ADS-B
08:22AM 48.8477 2.0214 185° South 348 400 11,100 1,200 Climbing FlightAware ADS-B
08:22AM 48.7870 2.0133 185° South 368 423 12,000 2,280 Climbing FlightAware ADS-B
08:23AM 48.7240 2.0044 185° South 361 415 14,000 2,160 Climbing FlightAware ADS-B
08:24AM 48.6812 1.9985 185° South 384 442 14,300 660 Climbing FlightAware ADS-B
08:24AM 48.6660 1.9986 180° South 391 450 14,400 960 Climbing FlightAware ADS-B
08:24AM 48.6499 2.0015 173° South 396 456 14,600 1,800 Climbing FlightAware ADS-B
08:24AM 48.6190 2.0152 164° South 401 461 15,200 1,920 Climbing FlightAware ADS-B
08:25AM 48.5636 2.0478 159° South 406 467 16,200 360 Climbing FlightAware ADS-B
08:25AM 48.5149 2.0793 159° South 1 1 15,600 2,040 Descending FlightAware UK
08:25AM 48.4969 2.0876 159° South 411 473 17,500 4,620 Climbing FlightAware ADS-B
08:26AM 48.4498 2.1042 167° South 415 478 18,300 1,800 Climbing FlightAware ADS-B
08:26AM 48.3905 2.1196 170° South 421 484 19,200 1,560 Climbing FlightAware ADS-B
08:27AM 48.3408 2.1341 169° South 431 496 19,800 1,680 Climbing FlightAware ADS-B
08:27AM 48.2819 2.1532 168° South 432 497 20,800 2,820 Climbing FlightAware ADS-B
08:28AM 48.2198 2.1742 167° South 408 470 22,800 2,520 Climbing FlightAware ADS-B
08:28AM 48.1635 2.1932 167° South 413 475 23,500 1,440 Climbing FlightAware ADS-B
08:29AM 48.1071 2.2123 167° South 418 481 24,300 1,500 Climbing FlightAware ADS-B
08:29AM 48.0491 2.2311 168° South 421 484 25,000 1,380 Climbing FlightAware ADS-B
08:30AM 47.9660 2.2550 169° South 423 487 26,200 1,020 Climbing FlightAware
08:33AM 47.6395 2.1779 189° South  Level Estimated
08:33AM 47.6430 2.3500 189° South 461 531 28,700  Level FlightAware
08:34AM 47.4084 2.4190 169° South 497 572 30,100 840 Climbing FlightAware ADS-B
08:35AM 47.3010 2.4503 169° South 504 580 30,900 840 Climbing FlightAware ADS-B
08:37AM 47.0790 2.5150 169° South 504 580 32,200 900 Climbing FlightAware
08:37AM 46.9870 2.5410 169° South 517 595 33,100 1,200 Climbing FlightAware
08:39AM 46.8300 2.5850 169° South 520 598 34,200 900 Climbing FlightAware
08:39AM 46.7370 2.6120 169° South 524 603 34,700 600 Climbing FlightAware
08:40AM 46.6420 2.6390 169° South 528 608 35,000 180 Climbing FlightAware
08:41AM 46.5410 2.6670 169° South 528 608 35,000  Level FlightAware
08:41AM 46.4380 2.6960 169° South 531 611 35,000  Level FlightAware
08:42AM 46.3320 2.7260 169° South 531 611 35,000  Level FlightAware
08:43AM 46.2300 2.7540 169° South 529 609 35,000  Level FlightAware
08:43AM 46.1300 2.7820 169° South 527 606 35,000  Level FlightAware
08:44AM 46.0300 2.8080 170° South 524 603 35,000  Level FlightAware
08:45AM 45.9350 2.8190 175° South 513 590 35,000  Level FlightAware
08:46AM 45.8280 2.8210 179° South 513 590 35,000  Level FlightAware
08:46AM 45.7350 2.8220 180° South 514 592 35,000  Level FlightAware
08:47AM 45.6250 2.8240 179° South 516 594 35,000  Level FlightAware
08:48AM 45.5310 2.8250 180° South 516 594 35,000  Level FlightAware
08:48AM 45.4350 2.8270 179° South 515 593 35,000  Level FlightAware
08:49AM 45.3510 2.8280 180° South 515 593 35,000  Level FlightAware
08:50AM 45.2360 2.8300 179° South 517 595 35,000  Level FlightAware
08:50AM 45.1310 2.8320 179° South 516 594 35,000  Level FlightAware
08:51AM 45.0320 2.8330 180° South 512 589 35,000  Level FlightAware
08:52AM 44.8980 2.8350 179° South 511 588 35,000  Level FlightAware
08:53AM 44.7980 2.8370 179° South 511 588 35,000  Level FlightAware
08:53AM 44.7030 2.8380 180° South 511 588 35,000  Level FlightAware
08:54AM 44.5700 2.8410 179° South 511 588 35,000  Level FlightAware
08:55AM 44.4750 2.8420 180° South 511 588 35,000  Level FlightAware
08:56AM 44.3670 2.8440 179° South 510 587 35,000  Level FlightAware
08:56AM 44.2730 2.8450 180° South 509 586 35,000  Level FlightAware
08:57AM 44.1700 2.8460 180° South 510 587 35,000  Level FlightAware
08:58AM 44.0740 2.8480 179° South 509 586 35,000  Level FlightAware
08:59AM 43.9820 2.8490 180° South 507 583 35,000  Level FlightAware
08:59AM 43.8760 2.8510 179° South 507 583 35,000  Level FlightAware
09:00AM 43.7700 2.8520 180° South 506 582 35,000  Level FlightAware
09:01AM 43.6760 2.8540 179° South 506 582 35,000  Level FlightAware
09:01AM 43.5830 2.8550 180° South 507 583 35,000  Level FlightAware
09:02AM 43.4910 2.8560 180° South 508 585 35,000  Level FlightAware
09:03AM 43.3820 2.8580 179° South 506 582 35,000  Level FlightAware
09:03AM 43.2870 2.8590 180° South 507 583 35,000  Level FlightAware
09:04AM 43.1860 2.8610 179° South 507 583 35,000  Level FlightAware
09:05AM 43.0890 2.8620 180° South 507 583 35,000  Level FlightAware
09:06AM 42.9840 2.8640 179° South 507 583 35,000  Level FlightAware
09:06AM 42.8890 2.8650 180° South 508 585 35,000  Level FlightAware
09:07AM 42.7990 2.8670 179° South 512 589 35,000  Level FlightAware
09:08AM 42.6950 2.8910 170° South 530 610 35,000  Level FlightAware
09:08AM 42.5970 2.9330 162° South 530 610 35,000  Level FlightAware
09:09AM 42.4900 2.9790 162° South 535 616 35,000  Level FlightAware
09:10AM 42.3960 3.0200 162° South 538 619 35,000  Level FlightAware
09:10AM 42.3000 3.0600 163° South 536 617 35,000  Level FlightAware
09:11AM 42.1960 3.1040 163° South 535 616 35,000  Level FlightAware
09:12AM 42.1030 3.1440 162° South 537 618 35,000  Level FlightAware
09:13AM 42.0060 3.1840 163° South 536 617 35,000  Level FlightAware
09:13AM 41.8950 3.2050 172° South 521 600 35,000  Level FlightAware
09:14AM 41.7990 3.2030 181° South 519 597 35,000  Level FlightAware
09:15AM 41.7020 3.1980 182° South 521 600 35,000  Level FlightAware
09:15AM 41.5960 3.1920 182° South 524 603 35,000  Level FlightAware
09:16AM 41.5020 3.1870 182° South 524 603 35,000  Level FlightAware
09:17AM 41.4030 3.1830 182° South 523 602 35,000  Level FlightAware
09:17AM 41.2920 3.1770 182° South 516 594 35,000  Level FlightAware
09:18AM 41.1970 3.1730 182° South 510 587 35,000  Level FlightAware
09:19AM 41.0940 3.1680 182° South 510 587 35,000  Level FlightAware
09:20AM 41.0000 3.1640 182° South 503 579 35,000  Level FlightAware
09:20AM 40.9070 3.1600 182° South 498 573 35,000  Level FlightAware
09:21AM 40.8050 3.1550 182° South 498 573 35,000  Level FlightAware
09:22AM 40.7160 3.1510 182° South 499 574 35,000  Level FlightAware
09:22AM 40.6150 3.1460 182° South 499 574 35,000  Level FlightAware
09:23AM 40.5230 3.1420 182° South 502 578 35,000  Level FlightAware
09:24AM 40.4300 3.1370 182° South 497 572 35,000  Level FlightAware
09:24AM 40.3240 3.1330 182° South 499 574 35,000  Level FlightAware
09:25AM 40.2220 3.1280 182° South 512 589 35,000  Level FlightAware
09:26AM 40.1230 3.1230 182° South 516 594 35,000  Level FlightAware
09:27AM 40.0160 3.1190 182° South 518 596 35,000  Level FlightAware
09:27AM 39.9170 3.0990 189° South 501 577 35,000  Level FlightAware
09:28AM 39.8410 3.0520 205° Southwest 476 548 35,000  Level FlightAware
09:29AM 39.7530 2.9880 209° Southwest 477 549 35,000  Level FlightAware
09:29AM 39.6780 2.9330 209° Southwest 478 550 35,000  Level FlightAware
09:30AM 39.5990 2.8760 209° Southwest 481 554 35,000  Level FlightAware
09:31AM 39.5110 2.8130 209° Southwest 479 551 35,000  Level FlightAware
09:31AM 39.4310 2.7620 206° Southwest 483 556 35,000  Level FlightAware
09:32AM 39.3340 2.7300 194° South 489 563 35,000  Level FlightAware
09:33AM 39.2450 2.7060 192° South 489 563 35,000  Level FlightAware
09:34AM 39.1570 2.6840 191° South 489 563 35,000  Level FlightAware
09:34AM 39.0550 2.6570 192° South 480 552 35,000  Level FlightAware
09:35AM 38.9670 2.6330 192° South 479 551 35,000  Level FlightAware
09:36AM 38.8660 2.6060 192° South 479 551 35,000  Level FlightAware
09:36AM 38.7820 2.5840 192° South 479 551 35,000  Level FlightAware
09:37AM 38.6890 2.5590 192° South 488 562 35,000  Level FlightAware
09:38AM 38.5910 2.5330 192° South 491 565 35,000  Level FlightAware
09:38AM 38.5010 2.5100 191° South 492 566 35,000  Level FlightAware
09:39AM 38.4110 2.4860 192° South 493 567 35,000  Level FlightAware
09:40AM 38.3110 2.4600 192° South 491 565 35,000  Level FlightAware
09:41AM 38.2230 2.4370 192° South 491 565 35,000  Level FlightAware
09:41AM 38.1430 2.4170 191° South 491 565 35,000  Level FlightAware
09:42AM 38.0420 2.3900 192° South 489 563 35,000  Level FlightAware
09:43AM 37.9520 2.3640 193° South 489 563 35,000  Level FlightAware
09:43AM 37.8450 2.3250 196° South 482 555 35,000  Level FlightAware
09:44AM 37.7570 2.2970 194° South 481 554 35,000  Level FlightAware
09:45AM 37.6580 2.2640 195° South 481 554 35,000  Level FlightAware
09:45AM 37.5840 2.2390 195° South 484 557 35,000  Level FlightAware
09:46AM 37.4750 2.2030 195° South 482 555 35,000  Level FlightAware
09:47AM 37.3880 2.1740 195° South 483 556 35,000  Level FlightAware
09:48AM 37.2980 2.1440 195° South 484 557 35,000  Level FlightAware
09:48AM 37.2140 2.1160 195° South 484 557 35,000  Level FlightAware
09:49AM 37.1400 2.0910 195° South 484 557 35,000  Level FlightAware
09:50AM 37.0670 2.0660 195° South 484 557 35,000  Level FlightAware
09:50AM 36.9930 2.0420 195° South 484 557 35,000  Level FlightAware
09:51AM 36.9010 2.0110 195° South 484 557 35,000  Level FlightAware
09:52AM 36.8280 1.9860 195° South 484 557 35,000  Level FlightAware
09:52AM 36.7540 1.9620 195° South 484 557 35,000  Level FlightAware
09:53AM 36.6810 1.9370 195° South 484 557 35,000  Level FlightAware
09:54AM 36.6070 1.9130 195° South 484 557 35,000  Level FlightAware
09:54AM 36.5340 1.8880 195° South 484 557 35,000  Level FlightAware
09:55AM 36.4420 1.8570 195° South 484 557 35,000  Level FlightAware
09:56AM 36.3680 1.8330 195° South 484 557 35,000  Level FlightAware
09:57AM 36.2950 1.8080 195° South 484 557 35,000  Level FlightAware
09:57AM 36.2210 1.7840 195° South 484 557 35,000  Level FlightAware
10:00AM 35.9468 1.7184 191° South  Level Estimated
10:01AM 35.8231 1.6889 191° South  Level Estimated
10:02AM 35.6994 1.6596 191° South  Level Estimated
10:03AM 35.5756 1.6303 191° South  Level Estimated
10:04AM 35.4523 1.6013 191° South  Level Estimated
10:05AM 35.3289 1.5723 191° South  Level Estimated
10:06AM 35.2055 1.5433 191° South  Level Estimated
10:07AM 35.0821 1.5145 191° South  Level Estimated
10:08AM 34.9587 1.4858 191° South  Level Estimated
10:09AM 34.8353 1.4571 191° South  Level Estimated
10:10AM 34.7119 1.4286 191° South  Level Estimated
10:11AM 34.5884 1.4001 191° South  Level Estimated
10:12AM 34.4650 1.3717 191° South  Level Estimated
10:13AM 34.3416 1.3434 191° South  Level Estimated
10:14AM 34.2181 1.3152 191° South  Level Estimated
10:15AM 34.0947 1.2870 191° South  Level Estimated
10:16AM 33.9712 1.2589 191° South  Level Estimated
10:17AM 33.8477 1.2310 191° South  Level Estimated
10:18AM 33.7243 1.2031 191° South  Level Estimated
10:19AM 33.6008 1.1752 191° South  Level Estimated
10:20AM 33.4773 1.1475 191° South  Level Estimated
10:21AM 33.3538 1.1198 191° South  Level Estimated
10:22AM 33.2303 1.0923 191° South  Level Estimated
10:23AM 33.1068 1.0647 191° South  Level Estimated
10:24AM 32.9833 1.0373 191° South  Level Estimated
10:25AM 32.8598 1.0100 191° South  Level Estimated
10:26AM 32.7363 0.9827 191° South  Level Estimated
10:27AM 32.6128 0.9555 191° South  Level Estimated
10:28AM 32.4892 0.9284 190° South  Level Estimated
10:29AM 32.3657 0.9013 190° South  Level Estimated
10:30AM 32.2421 0.8743 190° South  Level Estimated
10:31AM 32.1186 0.8474 190° South  Level Estimated
10:32AM 31.9950 0.8206 190° South  Level Estimated
10:33AM 31.8715 0.7938 190° South  Level Estimated
10:34AM 31.7479 0.7671 190° South  Level Estimated
10:35AM 31.6243 0.7405 190° South  Level Estimated
10:36AM 31.5008 0.7140 190° South  Level Estimated
10:37AM 31.3772 0.6875 190° South  Level Estimated
10:38AM 31.2536 0.6611 190° South  Level Estimated
10:39AM 31.1300 0.6348 190° South  Level Estimated
10:40AM 31.0064 0.6085 190° South  Level Estimated
10:41AM 30.8828 0.5823 190° South  Level Estimated
10:42AM 30.7592 0.5562 190° South  Level Estimated
10:43AM 30.6356 0.5301 190° South  Level Estimated
10:44AM 30.5120 0.5041 190° South  Level Estimated
10:45AM 30.3883 0.4782 190° South  Level Estimated
10:46AM 30.2647 0.4523 190° South  Level Estimated
10:47AM 30.1411 0.4265 190° South  Level Estimated
10:48AM 30.0174 0.4007 190° South  Level Estimated
10:49AM 29.8938 0.3751 190° South  Level Estimated
10:50AM 29.7701 0.3495 190° South  Level Estimated
10:51AM 29.6465 0.3239 190° South  Level Estimated
10:52AM 29.5228 0.2984 190° South  Level Estimated
10:53AM 29.3992 0.2730 190° South  Level Estimated
10:54AM 29.2755 0.2476 190° South  Level Estimated
10:55AM 29.1518 0.2223 190° South  Level Estimated
10:56AM 29.0282 0.1971 190° South  Level Estimated
10:57AM 28.9045 0.1719 190° South  Level Estimated
10:58AM 28.7808 0.1468 190° South  Level Estimated
10:59AM 28.6571 0.1217 190° South  Level Estimated
11:00AM 28.5334 0.0967 190° South  Level Estimated
11:01AM 28.4097 0.0718 190° South  Level Estimated
11:02AM 28.2860 0.0469 190° South  Level Estimated
11:03AM 28.1623 0.0221 190° South  Level Estimated
11:04AM 28.0386 -0.0027 190° South  Level Estimated
11:05AM 27.9149 -0.0274 190° South  Level Estimated
11:06AM 27.7911 -0.0520 190° South  Level Estimated
11:07AM 27.6674 -0.0766 190° South  Level Estimated
11:08AM 27.5437 -0.1012 190° South  Level Estimated
11:09AM 27.4199 -0.1257 190° South  Level Estimated
11:10AM 27.2962 -0.1501 190° South  Level Estimated
11:11AM 27.1724 -0.1745 190° South  Level Estimated
11:12AM 27.0487 -0.1988 190° South  Level Estimated
11:13AM 26.9249 -0.2231 190° South  Level Estimated
11:14AM 26.8012 -0.2473 190° South  Level Estimated
11:15AM 26.6774 -0.2715 190° South  Level Estimated
11:16AM 26.5536 -0.2956 190° South  Level Estimated
11:17AM 26.4299 -0.3196 190° South  Level Estimated
11:18AM 26.3061 -0.3436 190° South  Level Estimated
11:19AM 26.1823 -0.3676 190° South  Level Estimated
11:20AM 26.0585 -0.3915 190° South  Level Estimated
11:21AM 25.9348 -0.4154 190° South  Level Estimated
11:22AM 25.8110 -0.4392 190° South  Level Estimated
11:23AM 25.6872 -0.4629 190° South  Level Estimated
11:24AM 25.5634 -0.4866 190° South  Level Estimated
11:25AM 25.4396 -0.5103 190° South  Level Estimated
11:26AM 25.3158 -0.5339 190° South  Level Estimated
11:27AM 25.1920 -0.5575 190° South  Level Estimated
11:28AM 25.0681 -0.5810 190° South  Level Estimated
11:29AM 24.9443 -0.6045 190° South  Level Estimated
11:30AM 24.8205 -0.6279 190° South  Level Estimated
11:31AM 24.6967 -0.6513 190° South  Level Estimated
11:32AM 24.5729 -0.6746 190° South  Level Estimated
11:33AM 24.4469 -0.6983 190° South  Level Estimated
11:34AM 24.3209 -0.7219 190° South  Level Estimated
11:35AM 24.1949 -0.7455 190° South  Level Estimated
11:36AM 24.0689 -0.7690 190° South  Level Estimated
11:37AM 23.9429 -0.7925 190° South  Level Estimated
11:38AM 23.8169 -0.8160 190° South  Level Estimated
11:39AM 23.6909 -0.8394 190° South  Level Estimated
11:40AM 23.5649 -0.8627 190° South  Level Estimated
11:41AM 23.4389 -0.8861 190° South  Level Estimated
11:42AM 23.3129 -0.9093 190° South  Level Estimated
11:43AM 23.1868 -0.9326 190° South  Level Estimated
11:44AM 23.0608 -0.9557 190° South  Level Estimated
11:45AM 22.9348 -0.9789 190° South  Level Estimated
11:46AM 22.8088 -1.0020 190° South  Level Estimated
11:47AM 22.6827 -1.0250 190° South  Level Estimated
11:48AM 22.5567 -1.0481 190° South  Level Estimated
11:49AM 22.4306 -1.0710 190° South  Level Estimated
11:50AM 22.3046 -1.0940 190° South  Level Estimated
11:51AM 22.1786 -1.1168 190° South  Level Estimated
11:52AM 22.0525 -1.1397 190° South  Level Estimated
11:53AM 21.9265 -1.1625 190° South  Level Estimated
11:54AM 21.8004 -1.1853 190° South  Level Estimated
11:55AM 21.6743 -1.2080 190° South  Level Estimated
11:56AM 21.5483 -1.2307 190° South  Level Estimated
11:57AM 21.4222 -1.2533 189° South  Level Estimated
11:58AM 21.2961 -1.2759 189° South  Level Estimated
11:59AM 21.1701 -1.2985 189° South  Level Estimated
12:00PM 21.0440 -1.3211 189° South  Level Estimated
12:01PM 20.9179 -1.3435 189° South  Level Estimated
12:02PM 20.7918 -1.3660 189° South  Level Estimated
12:03PM 20.6658 -1.3884 189° South  Level Estimated
12:04PM 20.5397 -1.4108 189° South  Level Estimated
12:05PM 20.4136 -1.4331 189° South  Level Estimated
12:06PM 20.2875 -1.4554 189° South  Level Estimated
12:07PM 20.1614 -1.4777 189° South  Level Estimated
12:08PM 20.0353 -1.4999 189° South  Level Estimated
12:09PM 19.9092 -1.5221 189° South  Level Estimated
12:10PM 19.7831 -1.5443 189° South  Level Estimated
12:11PM 19.6570 -1.5664 189° South  Level Estimated
12:12PM 19.5309 -1.5885 189° South  Level Estimated
12:13PM 19.4048 -1.6106 189° South  Level Estimated
12:14PM 19.2787 -1.6326 189° South  Level Estimated
12:15PM 19.1525 -1.6546 189° South  Level Estimated
12:16PM 19.0264 -1.6766 189° South  Level Estimated
12:17PM 18.9003 -1.6985 189° South  Level Estimated
12:18PM 18.7742 -1.7204 189° South  Level Estimated
12:19PM 18.6480 -1.7422 189° South  Level Estimated
12:20PM 18.5219 -1.7641 189° South  Level Estimated
12:21PM 18.3958 -1.7858 189° South  Level Estimated
12:22PM 18.2696 -1.8076 189° South  Level Estimated
12:23PM 18.1435 -1.8293 189° South  Level Estimated
12:24PM 18.0174 -1.8510 189° South  Level Estimated
12:25PM 17.8912 -1.8727 189° South  Level Estimated
12:26PM 17.7651 -1.8943 189° South  Level Estimated
12:27PM 17.6389 -1.9159 189° South  Level Estimated
12:28PM 17.5128 -1.9375 189° South  Level Estimated
12:29PM 17.3866 -1.9591 189° South  Level Estimated
12:30PM 17.2605 -1.9806 189° South  Level Estimated
12:31PM 17.1343 -2.0021 189° South  Level Estimated
12:32PM 17.0082 -2.0236 189° South  Level Estimated
12:33PM 16.8820 -2.0450 189° South  Level Estimated
12:34PM 16.7558 -2.0664 189° South  Level Estimated
12:35PM 16.6297 -2.0877 189° South  Level Estimated
12:36PM 16.5035 -2.1091 189° South  Level Estimated
12:37PM 16.3773 -2.1304 189° South  Level Estimated
12:38PM 16.2512 -2.1517 189° South  Level Estimated
12:39PM 16.1250 -2.1730 189° South  Level Estimated
12:40PM 15.9988 -2.1942 189° South  Level Estimated
12:41PM 15.8727 -2.2154 189° South  Level Estimated
12:42PM 15.7465 -2.2366 189° South  Level Estimated
12:43PM 15.6203 -2.2577 189° South  Level Estimated
12:44PM 15.4941 -2.2789 189° South  Level Estimated
12:45PM 15.3679 -2.3000 189° South  Level Estimated
12:46PM 15.2417 -2.3210 189° South  Level Estimated
12:47PM 15.1155 -2.3421 189° South  Level Estimated
12:48PM 14.9894 -2.3631 189° South  Level Estimated
12:49PM 14.8632 -2.3841 189° South  Level Estimated
12:50PM 14.7370 -2.4051 189° South  Level Estimated
12:51PM 14.6108 -2.4260 189° South  Level Estimated
12:52PM 14.4846 -2.4470 189° South  Level Estimated
12:53PM 14.3584 -2.4679 189° South  Level Estimated
12:54PM 14.2322 -2.4888 189° South  Level Estimated
12:55PM 14.1060 -2.5096 189° South  Level Estimated
12:56PM 13.9798 -2.5305 189° South  Level Estimated
12:57PM 13.8535 -2.5513 189° South  Level Estimated
12:58PM 13.7273 -2.5721 189° South  Level Estimated
12:59PM 13.6011 -2.5928 189° South  Level Estimated
01:00PM 13.4749 -2.6136 189° South  Level Estimated
01:01PM 13.3487 -2.6343 189° South  Level Estimated
01:02PM 13.2225 -2.6550 189° South  Level Estimated
01:03PM 13.0963 -2.6757 189° South  Level Estimated
01:04PM 12.9700 -2.6963 189° South  Level Estimated
01:05PM 12.8438 -2.7170 189° South  Level Estimated
01:06PM 12.7176 -2.7376 189° South  Level Estimated
01:07PM 12.5914 -2.7582 189° South  Level Estimated
01:08PM 12.4652 -2.7788 189° South  Level Estimated
01:09PM 12.3389 -2.7993 189° South  Level Estimated
01:10PM 12.2127 -2.8199 189° South  Level Estimated
01:11PM 12.0865 -2.8404 189° South  Level Estimated
01:12PM 11.9602 -2.8609 189° South  Level Estimated
01:13PM 11.8340 -2.8814 189° South  Level Estimated
01:14PM 11.7078 -2.9018 189° South  Level Estimated
01:15PM 11.5815 -2.9223 189° South  Level Estimated
01:16PM 11.4553 -2.9427 189° South  Level Estimated
01:17PM 11.3291 -2.9631 189° South  Level Estimated
01:18PM 11.2028 -2.9835 189° South  Level Estimated
01:19PM 11.0766 -3.0038 189° South  Level Estimated
01:20PM 10.9503 -3.0242 189° South  Level Estimated
01:21PM 10.8241 -3.0445 189° South  Level Estimated
01:22PM 10.6978 -3.0648 189° South  Level Estimated
01:23PM 10.5716 -3.0851 189° South  Level Estimated
01:24PM 10.4453 -3.1054 189° South  Level Estimated
01:25PM 10.3191 -3.1257 189° South  Level Estimated
01:26PM 10.1928 -3.1459 189° South  Level Estimated
01:27PM 10.0666 -3.1662 189° South  Level Estimated
01:28PM 9.9403 -3.1864 189° South  Level Estimated
01:29PM 9.8141 -3.2066 189° South  Level Estimated
01:30PM 9.6878 -3.2268 189° South  Level Estimated
01:31PM 9.5616 -3.2469 189° South  Level Estimated
01:32PM 9.4353 -3.2671 189° South  Level Estimated
01:33PM 9.3090 -3.2873 189° South  Level Estimated
01:34PM 9.1842 -3.3071 189° South  Level Estimated
01:35PM 9.0594 -3.3270 189° South  Level Estimated
01:36PM 8.9346 -3.3469 189° South  Level Estimated
01:37PM 8.8098 -3.3668 189° South  Level Estimated
01:38PM 8.6849 -3.3866 189° South  Level Estimated
01:39PM 8.5601 -3.4064 189° South  Level Estimated
01:40PM 8.4353 -3.4262 189° South  Level Estimated
01:41PM 8.3105 -3.4460 189° South  Level Estimated
01:42PM 8.1857 -3.4658 189° South  Level Estimated
01:43PM 8.0608 -3.4856 189° South  Level Estimated
01:44PM 7.9360 -3.5054 189° South  Level Estimated
01:45PM 7.8112 -3.5251 189° South  Level Estimated
01:46PM 7.6864 -3.5449 189° South  Level Estimated
01:47PM 7.5615 -3.5646 189° South  Level Estimated
01:48PM 7.4367 -3.5843 189° South  Level Estimated
01:49PM 7.3119 -3.6040 189° South  Level Estimated
01:50PM 7.1870 -3.6237 189° South  Level Estimated
01:51PM 7.0622 -3.6434 189° South  Level Estimated
01:52PM 6.9374 -3.6631 189° South  Level Estimated
01:53PM 6.8126 -3.6827 189° South  Level Estimated
01:54PM 6.6877 -3.7024 189° South  Level Estimated
01:55PM 6.5629 -3.7220 189° South  Level Estimated
01:56PM 6.4381 -3.7417 189° South  Level Estimated
01:57PM 6.3132 -3.7613 189° South  Level Estimated
01:58PM 6.1887 -3.7809 189° South  Level Estimated
01:59PM 6.0643 -3.8004 189° South  Level Estimated
02:00PM 5.9398 -3.8200 189° South  Level Estimated
02:01PM 5.8153 -3.8395 189° South  Level Estimated
02:02PM 5.6908 -3.8590 189° South  Level Estimated
02:03PM 5.5663 -3.8785 189° South  Level Estimated
02:04PM 5.4419 -3.8980 189° South  Level Estimated
02:05PM 5.3174 -3.9175 189° South  Level Estimated